Time;durP1;ratioP1;P1;durP2;ratioP2;P2;SDS_P1;SDS_P2;PMS_P1;PMS_P2;Temp;Humidity;BMP_temperature;BMP_pressure;BME280_temperature;BME280_humidity;BME280_pressure;Samples;Min_cycle;Max_cycle;Signal;HPM_P1;HPM_P2
2022/10/02 00:01:46;;;;;;;1.38;1.27;;;;;;;19.97;78.87;99075.53;4987509;28;20038;-85
2022/10/02 00:04:34;;;;;;;0.43;0.43;;;;;;;19.94;78.95;99053.44;4987310;28;20042;-85
2022/10/02 00:07:06;;;;;;;1.23;1.15;;;;;;;19.64;80.36;99024.97;4987293;28;20417;-85
2022/10/02 00:09:37;;;;;;;0.35;0.35;;;;;;;19.82;81.08;99071.16;4987294;28;20113;-85
2022/10/02 00:12:07;;;;;;;3.75;1.67;;;;;;;19.42;82.08;99061.09;4987163;28;20539;-85
2022/10/02 00:14:36;;;;;;;0.63;0.63;;;;;;;19.28;82.88;99075.31;4987479;28;20030;-84
2022/10/02 00:17:02;;;;;;;19.90;5.05;;;;;;;18.93;83.55;99056.03;4969417;28;20510;-85
2022/10/02 00:19:28;;;;;;;3.53;1.48;;;;;;;19.08;84.43;99150.50;4987161;28;20038;-85
2022/10/02 00:22:05;;;;;;;0.15;0.15;;;;;;;19.10;84.05;99153.94;4986257;28;20815;-86
2022/10/02 00:24:42;;;;;;;1.50;1.40;;;;;;;19.00;84.27;99164.31;4987186;28;20045;-86
2022/10/02 00:27:30;;;;;;;1.52;1.42;;;;;;;18.95;84.91;99177.06;4969901;28;20757;-85
2022/10/02 00:29:59;;;;;;;1.58;1.27;;;;;;;18.66;85.36;99157.31;4986870;28;20030;-86
2022/10/02 00:32:39;;;;;;;1.05;1.05;;;;;;;18.83;85.55;99201.78;4987308;28;20026;-86
2022/10/02 00:35:29;;;;;;;0.73;0.68;;;;;;;19.06;84.44;99182.66;4987047;28;20148;-85
2022/10/02 00:38:33;;;;;;;1.35;0.95;;;;;;;18.76;85.90;99162.06;4969219;28;20420;-86
2022/10/02 00:41:33;;;;;;;1.30;1.20;;;;;;;18.86;85.24;99164.22;4946723;28;20046;-85
2022/10/02 00:44:10;;;;;;;0.38;0.38;;;;;;;18.88;85.13;99167.69;4983617;28;20157;-85
2022/10/02 00:46:58;;;;;;;1.15;1.05;;;;;;;18.80;85.27;99160.09;4986804;28;20069;-86
2022/10/02 00:49:48;;;;;;;2.45;2.25;;;;;;;18.90;84.64;99168.47;4950742;28;20069;-85
2022/10/02 00:52:30;;;;;;;1.85;1.27;;;;;;;19.02;83.50;99161.56;4990275;28;20054;-85
2022/10/02 00:55:14;;;;;;;3.47;2.30;;;;;;;18.98;82.90;99125.25;4990259;28;20054;-85
2022/10/02 00:57:56;;;;;;;0.63;0.63;;;;;;;18.98;81.79;99102.03;4991185;28;20113;-85
2022/10/02 01:00:24;;;;;;;0.80;0.50;;;;;;;18.76;82.26;99108.63;4972517;28;20424;-86
2022/10/02 01:03:10;;;;;;;0.98;0.95;;;;;;;18.79;83.12;99129.81;4990300;28;20108;-84
2022/10/02 01:05:36;;;;;;;3.35;2.20;;;;;;;18.94;82.12;99145.97;4990131;28;20097;-85
2022/10/02 01:08:02;;;;;;;1.40;1.30;;;;;;;18.71;81.91;99102.69;4990575;28;20034;-85
2022/10/02 01:10:28;;;;;;;3.92;2.03;;;;;;;19.18;80.90;99151.66;4990427;28;20038;-84
2022/10/02 01:12:56;;;;;;;0.88;0.85;;;;;;;19.27;79.63;99164.47;4990059;28;20038;-84
2022/10/02 01:15:28;;;;;;;0.57;0.57;;;;;;;19.52;79.39;99180.88;4989950;28;20038;-85
2022/10/02 01:17:54;;;;;;;1.55;1.17;;;;;;;19.31;78.36;99152.66;4989863;28;20042;-84
2022/10/02 01:20:33;;;;;;;4.57;2.50;;;;;;;19.36;78.93;99159.56;4989987;28;20030;-85
2022/10/02 01:23:23;;;;;;;1.55;0.50;;;;;;;19.59;78.24;99176.91;4989749;28;20034;-85
2022/10/02 01:25:49;;;;;;;2.25;1.20;;;;;;;19.44;77.32;99136.72;4990144;28;20528;-86
2022/10/02 01:28:15;;;;;;;1.25;0.85;;;;;;;19.67;76.98;99159.41;4989925;28;20049;-86
2022/10/02 01:30:45;;;;;;;0.95;0.93;;;;;;;19.72;76.83;99150.25;4989728;28;20026;-86
2022/10/02 01:33:12;;;;;;;0.45;0.45;;;;;;;19.68;76.62;99118.34;4972153;28;20408;-86
2022/10/02 01:35:38;;;;;;;0.98;0.60;;;;;;;19.69;75.62;99116.50;4989821;28;20042;-85
2022/10/02 01:38:10;;;;;;;1.48;0.95;;;;;;;19.80;75.92;99156.00;4989666;28;20507;-85
2022/10/02 01:40:38;;;;;;;0.10;0.10;;;;;;;19.65;76.21;99098.94;4989404;28;20034;-85
2022/10/02 01:43:08;;;;;;;0.20;0.20;;;;;;;19.88;76.23;99139.47;4989282;28;20041;-86
2022/10/02 01:45:52;;;;;;;0.65;0.65;;;;;;;19.88;75.53;99134.13;4989817;28;20037;-85
2022/10/02 01:48:33;;;;;;;0.30;0.30;;;;;;;19.81;76.18;99131.81;4990078;28;20026;-85
2022/10/02 01:51:20;;;;;;;1.10;1.08;;;;;;;19.72;75.63;99078.00;4989400;28;20133;-86
2022/10/02 01:54:18;;;;;;;1.65;1.55;;;;;;;19.76;76.87;99112.50;4989723;28;20121;-85
2022/10/02 01:57:06;;;;;;;0.40;0.40;;;;;;;19.48;76.91;99090.13;4971738;28;20042;-85
2022/10/02 01:59:43;;;;;;;1.00;0.65;;;;;;;19.55;77.28;99138.75;4989550;28;20057;-86
2022/10/02 02:02:09;;;;;;;2.60;2.22;;;;;;;19.65;77.05;99128.38;4986167;28;20046;-84
2022/10/02 02:04:40;;;;;;;0.77;0.47;;;;;;;19.67;76.51;99129.97;4986294;28;20099;-86
2022/10/02 02:07:27;;;;;;;1.77;1.65;;;;;;;19.44;76.29;99098.44;4989266;28;20141;-87
2022/10/02 02:10:07;;;;;;;0.43;0.40;;;;;;;19.60;76.56;99138.47;4989257;28;20037;-85
2022/10/02 02:12:39;;;;;;;5.07;3.03;;;;;;;19.59;77.13;99147.47;4982007;28;20063;-88
2022/10/02 02:15:17;;;;;;;1.92;1.55;;;;;;;19.52;76.46;99116.69;4989623;28;20034;-88
2022/10/02 02:17:57;;;;;;;0.55;0.55;;;;;;;19.53;76.16;99116.59;4973186;28;20045;-86
2022/10/02 02:20:29;;;;;;;0.50;0.50;;;;;;;19.87;75.76;99161.88;5006637;28;20038;-92
2022/10/02 02:23:00;;;;;;;0.20;0.20;;;;;;;19.69;76.03;99111.16;4991620;28;20023;-91
2022/10/02 02:25:29;;;;;;;2.10;0.95;;;;;;;19.71;76.94;99130.66;4983485;28;20496;-91
2022/10/02 02:28:06;;;;;;;0.15;0.15;;;;;;;19.87;77.34;99176.09;4972939;28;20124;-89
2022/10/02 02:30:36;;;;;;;1.10;1.08;;;;;;;19.60;77.15;99139.34;4983318;28;20125;-89
2022/10/02 02:33:13;;;;;;;0.45;0.45;;;;;;;19.82;76.96;99162.16;4988904;28;20041;-89
2022/10/02 02:35:47;;;;;;;0.20;0.20;;;;;;;19.53;76.38;99138.00;4989258;28;20090;-91
2022/10/02 02:38:23;;;;;;;0.60;0.60;;;;;;;19.57;76.51;99141.34;4973570;28;20038;-91
2022/10/02 02:40:50;;;;;;;0.75;0.75;;;;;;;19.78;75.56;99161.47;4974449;28;20503;-92
2022/10/02 02:43:49;;;;;;;0.45;0.45;;;;;;;20.11;75.03;99189.78;4990854;28;20061;-88
2022/10/02 02:46:28;;;;;;;1.95;1.80;;;;;;;19.97;74.69;99161.19;4983605;28;20045;-92
2022/10/02 02:49:03;;;;;;;0.10;0.10;;;;;;;19.88;74.41;99144.84;4990363;28;20038;-87
2022/10/02 02:51:39;;;;;;;0.50;0.50;;;;;;;20.05;75.02;99200.88;4998697;28;20057;-88
2022/10/02 02:54:18;;;;;;;0.25;0.25;;;;;;;19.82;75.53;99176.38;5008108;28;20113;-88
2022/10/02 02:56:46;;;;;;;0.55;0.52;;;;;;;19.57;75.99;99130.63;5010139;28;20096;-89
2022/10/02 02:59:13;;;;;;;0.85;0.85;;;;;;;19.89;77.13;99198.25;4993003;28;20403;-89
2022/10/02 03:01:40;;;;;;;0.50;0.30;;;;;;;19.74;76.51;99193.81;5008221;28;20787;-89
2022/10/02 03:04:09;;;;;;;0.60;0.60;;;;;;;19.79;77.53;99224.72;5009761;28;20914;-91
2022/10/02 03:06:37;;;;;;;0.75;0.75;;;;;;;19.89;76.97;99237.56;5010064;28;20120;-87
2022/10/02 03:09:06;;;;;;;0.10;0.10;;;;;;;19.79;76.38;99214.03;5010453;28;20484;-87
2022/10/02 03:11:49;;;;;;;0.10;0.10;;;;;;;20.09;76.38;99257.75;5009539;28;20030;-87
2022/10/02 03:14:24;;;;;;;0.22;0.20;;;;;;;19.90;77.85;99276.75;5009537;28;20033;-88
2022/10/02 03:16:59;;;;;;;0.15;0.15;;;;;;;19.75;78.98;99276.66;5009595;28;20504;-88
2022/10/02 03:19:44;;;;;;;0.10;0.10;;;;;;;19.41;79.85;99243.03;5009898;28;20034;-88
2022/10/02 03:22:58;;;;;;;0.10;0.10;;;;;;;19.50;81.96;99288.81;4991164;28;20729;-88
2022/10/02 03:25:35;;;;;;;0.57;0.57;;;;;;;19.40;83.51;99300.13;5009437;28;20133;-92
2022/10/02 03:28:09;;;;;;;0.43;0.43;;;;;;;19.14;85.01;99270.44;5008273;28;20045;-88
2022/10/02 03:30:36;;;;;;;1.98;1.38;;;;;;;18.97;85.44;99271.38;5006495;28;20146;-86
2022/10/02 03:33:04;;;;;;;0.22;0.22;;;;;;;18.80;85.82;99250.94;5007573;28;20033;-85
2022/10/02 03:35:31;;;;;;;0.10;0.10;;;;;;;18.94;84.84;99283.09;5007173;28;20045;-88
2022/10/02 03:38:06;;;;;;;0.30;0.30;;;;;;;19.25;84.28;99312.59;5007224;28;20033;-86
2022/10/02 03:40:32;;;;;;;1.10;1.00;;;;;;;19.28;83.99;99317.78;5007486;28;20042;-85
2022/10/02 03:42:58;;;;;;;0.20;0.20;;;;;;;19.38;82.17;99310.94;5007676;28;20044;-85
2022/10/02 03:45:24;;;;;;;1.15;1.08;;;;;;;19.40;81.97;99334.91;5007747;28;20038;-85
2022/10/02 03:47:50;;;;;;;0.75;0.57;;;;;;;19.21;81.58;99281.63;5006779;28;20033;-87
2022/10/02 03:50:15;;;;;;;40.03;1.20;;;;;;;19.35;80.61;99294.22;5006810;28;20033;-86
2022/10/02 03:52:41;;;;;;;0.10;0.10;;;;;;;19.45;79.91;99314.97;5006234;28;20786;-88
2022/10/02 03:55:34;;;;;;;1.80;1.40;;;;;;;19.41;78.75;99320.59;4989221;28;20535;-85
2022/10/02 03:58:07;;;;;;;2.55;1.65;;;;;;;19.38;78.44;99310.94;5006838;28;20033;-88
2022/10/02 04:00:40;;;;;;;0.00;0.00;;;;;;;19.37;77.64;99321.72;5006469;28;20153;-85
2022/10/02 04:03:14;;;;;;;0.25;0.25;;;;;;;19.13;77.55;99263.34;5007901;28;20053;-86
2022/10/02 04:06:00;;;;;;;0.10;0.10;;;;;;;19.50;76.98;99331.63;5007343;28;20076;-87
2022/10/02 04:08:38;;;;;;;0.10;0.10;;;;;;;19.48;76.70;99303.25;5007358;28;20526;-86
2022/10/02 04:11:16;;;;;;;0.40;0.40;;;;;;;19.46;76.28;99316.72;5008836;28;20066;-89
2022/10/02 04:13:45;;;;;;;0.95;0.95;;;;;;;19.37;76.31;99316.38;5009984;28;20041;-88
2022/10/02 04:16:36;;;;;;;0.32;0.32;;;;;;;19.13;75.42;99290.09;5008247;28;20026;-91
2022/10/02 04:19:32;;;;;;;0.60;0.60;;;;;;;19.07;73.75;99303.78;4990811;28;20042;-88
2022/10/02 04:22:25;;;;;;;1.55;1.45;;;;;;;19.28;73.68;99349.84;5007881;28;20026;-89
2022/10/02 04:24:59;;;;;;;0.13;0.13;;;;;;;19.30;72.64;99339.94;5008879;28;20423;-87
2022/10/02 04:27:42;;;;;;;0.13;0.13;;;;;;;19.20;71.74;99349.41;5011511;28;20038;-88
2022/10/02 04:30:15;;;;;;;0.32;0.32;;;;;;;18.99;70.88;99328.28;4991867;28;20079;-88
2022/10/02 04:32:41;;;;;;;0.10;0.10;;;;;;;18.99;68.80;99364.84;5008494;28;20527;-88
2022/10/02 04:35:21;;;;;;;0.10;0.10;;;;;;;19.00;68.02;99372.78;5011448;28;20034;-88
2022/10/02 04:37:56;;;;;;;0.40;0.40;;;;;;;18.98;66.96;99395.19;4992563;28;20480;-86
2022/10/02 04:41:00;;;;;;;0.10;0.10;;;;;;;18.82;67.44;99393.31;5011470;28;20034;-89
2022/10/02 04:43:53;;;;;;;0.10;0.10;;;;;;;18.55;67.02;99343.09;4955033;28;20046;-89
2022/10/02 04:46:43;;;;;;;0.95;0.95;;;;;;;18.85;66.78;99390.50;5002399;28;20042;-92
2022/10/02 04:49:08;;;;;;;0.30;0.30;;;;;;;18.77;66.82;99390.88;5011085;28;20844;-89
2022/10/02 04:52:01;;;;;;;0.43;0.43;;;;;;;18.71;66.80;99391.22;5012429;28;20057;-93
2022/10/02 04:54:45;;;;;;;0.10;0.10;;;;;;;18.47;67.03;99347.97;5012702;28;20021;-90
2022/10/02 04:57:47;;;;;;;0.25;0.25;;;;;;;18.77;66.04;99396.22;5008734;28;20034;-91
2022/10/02 05:00:18;;;;;;;0.10;0.10;;;;;;;18.83;66.58;99397.72;4995707;28;20037;-94
2022/10/02 05:02:50;;;;;;;0.85;0.85;;;;;;;18.78;66.57;99405.09;4995999;28;20154;-93
2022/10/02 05:05:50;;;;;;;1.08;0.60;;;;;;;18.64;65.93;99372.91;4995920;28;20424;-94
2022/10/02 05:08:34;;;;;;;5.53;1.35;;;;;;;18.97;65.30;99413.03;5000265;28;20563;-93
2022/10/02 05:11:02;;;;;;;0.10;0.10;;;;;;;18.99;65.69;99424.50;4995232;28;20496;-94
2022/10/02 05:13:59;;;;;;;0.63;0.63;;;;;;;19.10;65.07;99421.25;4993723;28;20501;-93
2022/10/02 05:16:46;;;;;;;0.22;0.22;;;;;;;19.06;64.71;99430.38;4992895;28;20034;-94
2022/10/02 05:19:47;;;;;;;0.10;0.10;;;;;;;19.13;64.84;99442.47;5002372;28;20029;-94
2022/10/02 05:22:31;;;;;;;0.10;0.10;;;;;;;19.23;64.58;99429.44;4997206;28;20033;-95
2022/10/02 05:25:10;;;;;;;0.35;0.20;;;;;;;19.00;64.47;99449.41;5000097;28;20062;-92
2022/10/02 05:27:57;;;;;;;0.30;0.30;;;;;;;18.98;64.38;99454.84;5013724;28;20041;-94
2022/10/02 05:30:23;;;;;;;0.10;0.10;;;;;;;19.03;64.61;99463.50;4995077;28;20045;-93
2022/10/02 05:33:16;;;;;;;0.10;0.10;;;;;;;18.98;64.07;99462.84;5019344;28;20014;-93
2022/10/02 05:36:10;;;;;;;0.47;0.47;;;;;;;19.12;62.99;99484.38;5008261;28;20574;-94
2022/10/02 05:39:00;;;;;;;0.30;0.20;;;;;;;19.40;62.67;99474.84;4985535;28;20035;-93
2022/10/02 05:41:57;;;;;;;0.63;0.63;;;;;;;19.58;61.86;99475.63;4996928;28;20030;-93
2022/10/02 05:44:36;;;;;;;1.05;1.00;;;;;;;19.36;61.84;99478.63;5008271;28;20389;-94
2022/10/02 05:47:29;;;;;;;0.10;0.10;;;;;;;19.26;62.19;99470.28;4982538;28;20064;-95
2022/10/02 05:50:00;;;;;;;1.13;1.03;;;;;;;19.12;62.33;99478.16;5005743;28;20049;-94
2022/10/02 05:52:34;;;;;;;0.45;0.45;;;;;;;19.23;62.36;99490.94;4997159;28;20049;-93
2022/10/02 05:55:15;;;;;;;0.70;0.70;;;;;;;18.92;62.68;99477.44;5006989;28;20137;-92
2022/10/02 05:57:53;;;;;;;1.90;1.30;;;;;;;19.08;62.32;99474.78;4993399;28;20408;-91
2022/10/02 06:01:14;;;;;;;0.10;0.10;;;;;;;19.17;62.02;99469.88;4989259;28;20416;-93
2022/10/02 06:03:56;;;;;;;0.70;0.70;;;;;;;19.25;61.97;99507.78;4977955;28;20050;-91
2022/10/02 06:06:31;;;;;;;0.85;0.85;;;;;;;19.24;61.47;99473.97;4981357;28;20038;-93
2022/10/02 06:09:04;;;;;;;0.20;0.20;;;;;;;19.37;60.83;99444.72;4994442;28;20054;-91
2022/10/02 06:11:36;;;;;;;0.10;0.10;;;;;;;19.94;58.94;99487.06;4993405;28;20129;-93
2022/10/02 06:14:09;;;;;;;0.20;0.20;;;;;;;20.19;58.32;99507.94;4993774;28;20037;-93
2022/10/02 06:16:51;;;;;;;0.17;0.17;;;;;;;19.84;59.35;99506.31;4993377;28;20030;-90
2022/10/02 06:19:27;;;;;;;0.93;0.47;;;;;;;19.52;59.17;99443.88;4992623;28;20381;-89
2022/10/02 06:21:58;;;;;;;0.10;0.10;;;;;;;19.75;57.66;99428.34;5009059;28;20122;-91
2022/10/02 06:24:29;;;;;;;0.28;0.28;;;;;;;20.09;57.37;99486.19;5008224;28;20041;-90
2022/10/02 06:27:12;;;;;;;0.82;0.82;;;;;;;20.49;56.53;99504.44;4991830;28;20049;-89
2022/10/02 06:29:58;;;;;;;0.55;0.55;;;;;;;20.57;56.60;99535.19;5009850;28;20484;-91
2022/10/02 06:32:31;;;;;;;0.20;0.20;;;;;;;20.66;55.45;99525.75;4992013;28;20068;-91
2022/10/02 06:34:57;;;;;;;0.15;0.15;;;;;;;20.79;54.36;99496.41;5010964;28;20093;-90
2022/10/02 06:37:37;;;;;;;0.13;0.13;;;;;;;21.27;54.01;99548.00;5011021;28;20030;-90
2022/10/02 06:40:36;;;;;;;0.30;0.30;;;;;;;21.26;52.83;99532.00;5011376;28;20072;-92
2022/10/02 06:43:15;;;;;;;0.20;0.20;;;;;;;21.07;53.15;99500.09;4993263;28;20034;-89
2022/10/02 06:46:00;;;;;;;0.20;0.20;;;;;;;21.17;52.60;99522.69;4992969;28;20037;-89
2022/10/02 06:48:54;;;;;;;0.40;0.40;;;;;;;21.10;52.25;99510.59;5011507;28;20030;-93
2022/10/02 06:51:44;;;;;;;0.75;0.70;;;;;;;21.20;52.22;99527.84;5011253;28;20073;-92
2022/10/02 06:54:17;;;;;;;0.10;0.10;;;;;;;21.30;51.67;99549.59;4994211;28;20124;-93
2022/10/02 06:57:07;;;;;;;0.15;0.15;;;;;;;21.33;51.21;99537.81;5011987;28;20082;-95
2022/10/02 07:00:01;;;;;;;0.35;0.35;;;;;;;21.43;51.74;99545.22;4993621;28;20030;-91
2022/10/02 07:02:48;;;;;;;0.40;0.30;;;;;;;21.64;50.65;99558.25;5011100;28;20736;-91
2022/10/02 07:05:35;;;;;;;0.10;0.10;;;;;;;21.52;50.58;99557.22;4993043;28;20034;-94
2022/10/02 07:08:06;;;;;;;0.65;0.65;;;;;;;21.53;50.17;99542.84;4992848;28;20068;-93
2022/10/02 07:10:42;;;;;;;0.38;0.38;;;;;;;21.43;50.72;99541.66;4993714;28;20026;-94
2022/10/02 07:13:26;;;;;;;;;;;;;;;21.32;50.13;99541.47;4994028;28;20074;-95
2022/10/02 07:16:10;;;;;;;0.70;0.70;;;;;;;21.32;50.43;99550.38;4993497;28;20688;-92
2022/10/02 07:18:59;;;;;;;0.40;0.40;;;;;;;21.70;50.15;99567.75;5011392;28;20040;-93
2022/10/02 07:21:50;;;;;;;0.10;0.10;;;;;;;21.73;49.48;99583.66;4992808;28;20034;-91
2022/10/02 07:24:56;;;;;;;0.43;0.43;;;;;;;21.95;49.18;99562.56;4999557;28;20049;-92
2022/10/02 07:27:33;;;;;;;0.10;0.10;;;;;;;22.10;48.72;99570.56;4993021;28;20045;-92
2022/10/02 07:30:07;;;;;;;0.25;0.25;;;;;;;22.38;47.84;99601.91;4993087;28;20033;-91
2022/10/02 07:32:47;;;;;;;0.28;0.28;;;;;;;22.01;46.40;99601.56;4992829;28;20406;-91
2022/10/02 07:35:39;;;;;;;0.10;0.10;;;;;;;22.04;45.74;99606.75;5010766;28;20040;-90
2022/10/02 07:38:49;;;;;;;0.10;0.10;;;;;;;22.05;45.85;99615.69;5010740;28;20034;-93
2022/10/02 07:42:09;;;;;;;0.40;0.38;;;;;;;21.90;45.78;99567.34;5010247;28;20109;-91
2022/10/02 07:44:57;;;;;;;0.32;0.32;;;;;;;22.49;45.87;99604.75;4976867;28;20050;-93
2022/10/02 07:47:25;;;;;;;0.47;0.35;;;;;;;22.57;45.21;99606.06;4992897;28;20045;-94
2022/10/02 07:50:29;;;;;;;0.10;0.10;;;;;;;22.96;45.80;99610.59;5011959;28;20070;-93
2022/10/02 07:53:04;;;;;;;0.10;0.10;;;;;;;21.94;44.42;99487.47;4993495;28;20052;-91
2022/10/02 07:55:31;;;;;;;0.17;0.17;;;;;;;21.86;44.98;99538.97;4993505;28;20527;-93
2022/10/02 07:58:26;;;;;;;0.32;0.32;;;;;;;22.50;44.48;99584.13;5010480;28;20037;-92
2022/10/02 08:01:01;;;;;;;1.55;0.43;;;;;;;22.04;45.05;99509.19;4993622;28;20045;-93
2022/10/02 08:03:48;;;;;;;0.85;0.40;;;;;;;22.47;45.20;99542.16;4993760;28;20026;-95
2022/10/02 08:06:16;;;;;;;0.13;0.13;;;;;;;22.34;44.22;99543.97;4992367;28;20033;-92
2022/10/02 08:09:10;;;;;;;0.30;0.30;;;;;;;22.02;44.72;99551.41;4991534;28;20038;-91
2022/10/02 08:11:47;;;;;;;0.75;0.63;;;;;;;22.20;44.71;99565.44;4991124;28;20065;-90
2022/10/02 08:14:20;;;;;;;0.20;0.20;;;;;;;22.30;43.74;99582.72;5007802;28;20045;-94
2022/10/02 08:16:51;;;;;;;0.20;0.20;;;;;;;22.27;43.37;99559.56;5007240;28;20042;-92
2022/10/02 08:19:51;;;;;;;0.47;0.30;;;;;;;22.71;43.55;99608.72;4985681;28;20447;-91
2022/10/02 08:22:25;;;;;;;1.13;1.05;;;;;;;22.91;44.07;99610.06;5008114;28;20029;-90
2022/10/02 08:25:01;;;;;;;0.60;0.60;;;;;;;22.85;42.20;99549.47;4991153;28;20403;-91
2022/10/02 08:27:46;;;;;;;0.38;0.38;;;;;;;22.36;42.09;99536.66;5008922;28;20053;-89
2022/10/02 08:30:14;;;;;;;0.00;0.00;;;;;;;22.76;42.52;99577.00;5008869;28;20030;-91
2022/10/02 08:32:40;;;;;;;0.35;0.35;;;;;;;22.95;40.91;99586.50;4976298;28;20034;-92
2022/10/02 08:35:14;;;;;;;0.10;0.10;;;;;;;23.22;41.02;99586.47;5009380;28;20034;-90
2022/10/02 08:38:08;;;;;;;0.20;0.20;;;;;;;22.97;41.39;99590.81;4992098;28;20447;-93
2022/10/02 08:40:34;;;;;;;;;;;;;;;23.29;40.59;99603.91;4991572;28;20045;-92
2022/10/02 08:43:21;;;;;;;0.25;0.25;;;;;;;23.16;40.65;99597.66;4991710;28;19914;-92
2022/10/02 08:46:15;;;;;;;0.10;0.10;;;;;;;23.04;40.29;99612.78;4991530;28;20582;-90
2022/10/02 08:48:57;;;;;;;0.20;0.20;;;;;;;22.87;40.28;99595.09;5008614;28;20026;-90
2022/10/02 08:51:56;;;;;;;0.32;0.32;;;;;;;22.91;40.34;99606.50;4990924;28;20380;-89
2022/10/02 08:55:00;;;;;;;0.32;0.30;;;;;;;22.92;40.05;99613.59;4984526;28;20042;-89
2022/10/02 08:57:46;;;;;;;0.30;0.30;;;;;;;22.88;39.33;99604.88;4985688;28;20799;-91
2022/10/02 09:00:21;;;;;;;1.33;1.23;;;;;;;22.93;40.15;99615.34;5007269;28;20056;-89
2022/10/02 09:03:36;;;;;;;0.20;0.20;;;;;;;22.75;40.10;99587.84;5007557;28;20567;-91
2022/10/02 09:06:14;;;;;;;5.13;4.63;;;;;;;23.11;40.74;99602.47;4990319;28;20038;-89
2022/10/02 09:09:03;;;;;;;0.60;0.60;;;;;;;22.82;40.18;99600.78;5008002;28;20731;-90
2022/10/02 09:11:59;;;;;;;5.90;3.97;;;;;;;22.99;40.77;99620.31;5011783;28;20025;-90
2022/10/02 09:14:43;;;;;;;1.63;1.52;;;;;;;23.29;40.12;99613.81;5014989;28;20102;-91
2022/10/02 09:17:29;;;;;;;1.00;0.95;;;;;;;23.31;39.76;99611.88;5013796;28;20029;-90
2022/10/02 09:20:04;;;;;;;0.10;0.10;;;;;;;23.20;37.63;99631.44;5015626;28;20040;-90
2022/10/02 09:22:38;;;;;;;0.03;0.03;;;;;;;23.22;38.15;99626.84;4994711;28;20419;-89
2022/10/02 09:25:29;;;;;;;0.10;0.10;;;;;;;23.12;36.99;99580.00;5011999;28;20030;-92
2022/10/02 09:28:13;;;;;;;5.75;2.20;;;;;;;23.23;36.56;99599.81;5010527;28;20132;-90
2022/10/02 09:31:02;;;;;;;0.00;0.00;;;;;;;23.47;38.53;99599.06;4992884;28;20389;-89
2022/10/02 09:33:51;;;;;;;0.10;0.10;;;;;;;23.33;37.54;99608.09;5010943;28;20022;-88
2022/10/02 09:36:56;;;;;;;0.93;0.82;;;;;;;23.37;38.25;99595.28;5010941;28;20041;-90
2022/10/02 09:39:50;;;;;;;0.20;0.20;;;;;;;23.66;37.58;99587.84;5011124;28;20449;-88
2022/10/02 09:43:05;;;;;;;0.30;0.30;;;;;;;23.37;36.78;99555.81;5011140;28;20037;-87
2022/10/02 09:45:45;;;;;;;0.20;0.20;;;;;;;23.90;36.81;99590.66;5009856;28;20045;-91
2022/10/02 09:48:23;;;;;;;0.10;0.10;;;;;;;23.74;37.72;99587.31;4979495;28;20385;-91
2022/10/02 09:51:04;;;;;;;0.10;0.10;;;;;;;23.49;37.18;99555.91;4998464;28;20034;-92
2022/10/02 09:53:50;;;;;;;0.43;0.32;;;;;;;23.89;37.30;99567.38;5009688;28;20108;-90
2022/10/02 09:56:37;;;;;;;0.57;0.47;;;;;;;23.56;37.37;99555.34;5010041;28;20120;-87
2022/10/02 09:59:38;;;;;;;0.20;0.20;;;;;;;23.77;37.06;99570.94;5000577;28;20064;-92
2022/10/02 10:02:22;;;;;;;0.15;0.15;;;;;;;23.53;36.26;99547.50;4968589;28;20038;-87
2022/10/02 10:05:16;;;;;;;0.30;0.30;;;;;;;23.58;36.76;99539.09;5006022;28;20048;-86
2022/10/02 10:08:09;;;;;;;0.10;0.10;;;;;;;23.71;35.93;99565.97;4976267;28;20050;-86
2022/10/02 10:11:28;;;;;;;0.17;0.17;;;;;;;23.82;36.85;99575.97;5014208;28;20057;-87
2022/10/02 10:13:56;;;;;;;0.35;0.35;;;;;;;23.90;35.87;99585.28;4980661;28;20050;-89
2022/10/02 10:17:07;;;;;;;0.28;0.28;;;;;;;23.98;36.15;99578.47;5007238;28;20044;-86
2022/10/02 10:19:45;;;;;;;0.47;0.47;;;;;;;24.27;35.61;99562.88;4997922;28;20476;-86
2022/10/02 10:22:38;;;;;;;1.13;1.02;;;;;;;23.86;35.15;99542.50;5004313;28;20033;-86
2022/10/02 10:25:36;;;;;;;0.30;0.30;;;;;;;23.90;35.73;99550.25;5001635;28;20034;-86
2022/10/02 10:28:43;;;;;;;0.43;0.43;;;;;;;23.77;34.19;99550.28;4976285;28;20050;-84
2022/10/02 10:31:27;;;;;;;0.10;0.10;;;;;;;23.96;34.62;99562.44;5001682;28;20038;-87
2022/10/02 10:34:27;;;;;;;0.63;0.63;;;;;;;24.15;35.42;99580.78;5000679;28;20073;-86
2022/10/02 10:40:22;;;;;;;0.10;0.10;;;;;;;24.37;34.65;99571.13;4999038;28;20052;-87
2022/10/02 10:43:31;;;;;;;0.10;0.10;;;;;;;24.41;34.43;99557.31;4999939;28;20073;-85
2022/10/02 10:46:05;;;;;;;0.20;0.20;;;;;;;24.14;34.11;99546.72;5007849;28;20530;-87
2022/10/02 10:49:08;;;;;;;0.30;0.30;;;;;;;24.49;33.37;99581.84;4991497;28;20113;-87
2022/10/02 10:51:58;;;;;;;0.10;0.10;;;;;;;24.42;33.76;99594.06;5008191;28;20053;-86
2022/10/02 10:54:23;;;;;;;0.30;0.30;;;;;;;24.23;33.70;99591.84;5008007;28;20037;-86
2022/10/02 10:56:57;;;;;;;0.00;0.00;;;;;;;24.25;33.61;99567.50;5007877;28;20060;-87
2022/10/02 10:59:44;;;;;;;0.30;0.30;;;;;;;24.09;33.34;99592.88;5009381;28;20031;-86
2022/10/02 11:02:34;;;;;;;0.10;0.10;;;;;;;24.18;33.30;99603.97;5009113;28;20554;-88
2022/10/02 11:05:24;;;;;;;1.45;0.45;;;;;;;24.53;32.87;99585.19;5000371;28;20033;-87
2022/10/02 11:08:26;;;;;;;0.25;0.25;;;;;;;24.34;32.72;99564.13;5007751;28;20096;-87
2022/10/02 11:11:23;;;;;;;0.65;0.65;;;;;;;24.13;32.72;99588.16;5007877;28;20637;-89
2022/10/02 11:14:01;;;;;;;0.03;0.03;;;;;;;24.17;33.49;99596.84;5014045;28;20083;-89
2022/10/02 11:17:08;;;;;;;0.32;0.28;;;;;;;24.10;33.64;99540.72;4994612;28;20038;-88
2022/10/02 11:19:52;;;;;;;0.00;0.00;;;;;;;24.00;32.47;99607.00;4992105;28;20057;-89
2022/10/02 11:22:40;;;;;;;0.00;0.00;;;;;;;24.11;32.06;99607.13;4982751;28;20030;-89
2022/10/02 11:25:36;;;;;;;0.08;0.08;;;;;;;24.15;31.94;99617.66;5005710;28;20046;-87
2022/10/02 11:28:29;;;;;;;0.00;0.00;;;;;;;24.08;31.85;99603.75;4998208;28;20030;-88
2022/10/02 11:31:40;;;;;;;0.10;0.10;;;;;;;23.97;31.71;99604.53;4999897;28;20029;-89
2022/10/02 11:34:36;;;;;;;0.10;0.10;;;;;;;24.05;31.63;99612.94;5013104;28;20053;-88
2022/10/02 11:37:01;;;;;;;0.00;0.00;;;;;;;23.82;31.46;99584.94;5006414;28;20034;-90
2022/10/02 11:40:12;;;;;;;0.10;0.10;;;;;;;23.90;31.30;99608.66;5007519;28;20154;-87
2022/10/02 11:43:15;;;;;;;0.10;0.10;;;;;;;24.18;31.64;99588.66;4945667;29;20545;-86
2022/10/02 11:46:11;;;;;;;0.00;0.00;;;;;;;24.35;31.36;99598.19;5005825;28;20171;-88
2022/10/02 11:48:56;;;;;;;0.22;0.22;;;;;;;24.49;31.40;99589.94;5007026;28;20042;-87
2022/10/02 11:51:59;;;;;;;0.28;0.28;;;;;;;24.35;31.27;99598.19;5000727;28;20050;-87
2022/10/02 11:55:06;;;;;;;0.20;0.20;;;;;;;24.41;30.83;99599.59;4974249;28;20472;-88
2022/10/02 11:57:50;;;;;;;0.00;0.00;;;;;;;24.29;31.09;99580.63;4999983;28;20522;-87
2022/10/02 12:00:40;;;;;;;0.25;0.25;;;;;;;24.23;30.77;99583.78;5005991;28;20030;-85
2022/10/02 12:03:19;;;;;;;0.10;0.10;;;;;;;24.29;30.63;99579.78;4966872;28;20035;-87
2022/10/02 12:06:01;;;;;;;0.28;0.28;;;;;;;24.13;30.97;99597.06;4986889;28;20030;-85
2022/10/02 12:08:46;;;;;;;0.10;0.10;;;;;;;24.35;31.84;99581.16;4966669;28;20043;-86
2022/10/02 12:11:25;;;;;;;0.05;0.05;;;;;;;24.22;31.15;99573.09;4980666;28;20035;-86
2022/10/02 12:13:51;;;;;;;0.00;0.00;;;;;;;24.03;30.79;99555.59;4970560;28;20113;-86
2022/10/02 12:16:42;;;;;;;0.13;0.13;;;;;;;24.31;31.67;99567.03;4972401;28;20761;-86
2022/10/02 12:19:28;;;;;;;0.00;0.00;;;;;;;24.54;31.12;99586.03;4962493;28;20042;-87
2022/10/02 12:28:21;;;;;;;0.00;0.00;;;;;;;24.29;30.72;99591.41;4985723;28;20436;-84
2022/10/02 12:31:00;;;;;;;0.28;0.25;;;;;;;24.20;30.02;99550.81;4975102;28;20034;-86
2022/10/02 12:33:32;;;;;;;0.03;0.03;;;;;;;24.36;30.69;99566.69;4975138;28;20125;-85
2022/10/02 12:36:08;;;;;;;0.20;0.15;;;;;;;24.51;30.19;99584.41;4986152;28;20039;-84
2022/10/02 12:38:52;;;;;;;0.00;0.00;;;;;;;24.29;30.16;99572.53;4985004;28;20034;-85
2022/10/02 12:41:58;;;;;;;0.10;0.10;;;;;;;24.33;29.92;99583.09;4968088;28;20499;-89
2022/10/02 12:44:48;;;;;;;0.10;0.10;;;;;;;24.51;29.79;99586.28;4986726;28;20031;-84
2022/10/02 12:47:39;;;;;;;0.47;0.40;;;;;;;24.43;30.24;99587.69;4990064;28;20106;-86
2022/10/02 12:50:20;;;;;;;0.00;0.00;;;;;;;24.43;29.50;99598.47;4972350;28;20472;-86
2022/10/02 12:53:09;;;;;;;2.35;1.45;;;;;;;24.51;30.00;99600.59;4992915;28;20072;-86
2022/10/02 12:56:11;;;;;;;0.00;0.00;;;;;;;24.42;29.80;99590.50;4969706;28;20049;-86